sensor_id;sensor_type;location;lat;lon;timestamp;temperature;humidity
77100;SHT31;66602;48.922;2.414;2024-02-21T00:01:42;7.85;88.20
77100;SHT31;66602;48.922;2.414;2024-02-21T00:04:07;7.92;88.29
77100;SHT31;66602;48.922;2.414;2024-02-21T00:06:33;8.05;87.92
77100;SHT31;66602;48.922;2.414;2024-02-21T00:08:59;8.13;87.59
77100;SHT31;66602;48.922;2.414;2024-02-21T00:11:24;8.28;86.86
77100;SHT31;66602;48.922;2.414;2024-02-21T00:13:50;8.25;86.67
77100;SHT31;66602;48.922;2.414;2024-02-21T00:16:16;8.26;86.90
77100;SHT31;66602;48.922;2.414;2024-02-21T00:18:42;8.26;86.90
77100;SHT31;66602;48.922;2.414;2024-02-21T00:21:07;8.32;86.77
77100;SHT31;66602;48.922;2.414;2024-02-21T00:23:33;8.40;86.31
77100;SHT31;66602;48.922;2.414;2024-02-21T00:25:59;8.40;86.08
77100;SHT31;66602;48.922;2.414;2024-02-21T00:28:24;8.35;86.33
77100;SHT31;66602;48.922;2.414;2024-02-21T00:30:50;8.39;86.28
77100;SHT31;66602;48.922;2.414;2024-02-21T00:33:17;8.36;86.05
77100;SHT31;66602;48.922;2.414;2024-02-21T00:35:42;8.29;86.20
77100;SHT31;66602;48.922;2.414;2024-02-21T00:38:08;8.15;86.70
77100;SHT31;66602;48.922;2.414;2024-02-21T00:40:34;8.03;86.97
77100;SHT31;66602;48.922;2.414;2024-02-21T00:43:00;7.94;87.42
77100;SHT31;66602;48.922;2.414;2024-02-21T00:45:25;7.86;87.61
77100;SHT31;66602;48.922;2.414;2024-02-21T00:47:51;7.75;88.22
77100;SHT31;66602;48.922;2.414;2024-02-21T00:50:16;7.71;88.32
77100;SHT31;66602;48.922;2.414;2024-02-21T00:52:42;7.74;88.36
77100;SHT31;66602;48.922;2.414;2024-02-21T00:55:08;7.65;88.46
77100;SHT31;66602;48.922;2.414;2024-02-21T00:57:34;7.70;88.66
77100;SHT31;66602;48.922;2.414;2024-02-21T01:00:01;7.78;88.42
77100;SHT31;66602;48.922;2.414;2024-02-21T01:02:27;7.98;87.77
77100;SHT31;66602;48.922;2.414;2024-02-21T01:04:53;8.15;87.11
77100;SHT31;66602;48.922;2.414;2024-02-21T01:07:19;8.16;86.79
77100;SHT31;66602;48.922;2.414;2024-02-21T01:09:44;8.21;86.64
77100;SHT31;66602;48.922;2.414;2024-02-21T01:12:10;8.25;86.36
77100;SHT31;66602;48.922;2.414;2024-02-21T01:14:36;8.26;86.23
77100;SHT31;66602;48.922;2.414;2024-02-21T01:17:01;8.29;86.20
77100;SHT31;66602;48.922;2.414;2024-02-21T01:19:27;8.30;86.23
77100;SHT31;66602;48.922;2.414;2024-02-21T01:21:53;8.29;86.10
77100;SHT31;66602;48.922;2.414;2024-02-21T01:24:18;8.26;86.09
77100;SHT31;66602;48.922;2.414;2024-02-21T01:26:43;8.26;86.11
77100;SHT31;66602;48.922;2.414;2024-02-21T01:29:09;8.32;85.85
77100;SHT31;66602;48.922;2.414;2024-02-21T01:31:34;8.29;85.79
77100;SHT31;66602;48.922;2.414;2024-02-21T01:34:00;8.25;86.10
77100;SHT31;66602;48.922;2.414;2024-02-21T01:36:25;8.28;86.17
77100;SHT31;66602;48.922;2.414;2024-02-21T01:38:51;8.28;86.03
77100;SHT31;66602;48.922;2.414;2024-02-21T01:41:16;8.26;85.87
77100;SHT31;66602;48.922;2.414;2024-02-21T01:43:42;8.30;85.72
77100;SHT31;66602;48.922;2.414;2024-02-21T01:46:07;8.32;85.49
77100;SHT31;66602;48.922;2.414;2024-02-21T01:48:33;8.25;85.71
77100;SHT31;66602;48.922;2.414;2024-02-21T01:50:59;8.16;85.88
77100;SHT31;66602;48.922;2.414;2024-02-21T01:53:38;8.16;85.87
77100;SHT31;66602;48.922;2.414;2024-02-21T01:56:06;8.16;85.80
77100;SHT31;66602;48.922;2.414;2024-02-21T01:58:33;8.13;85.99
77100;SHT31;66602;48.922;2.414;2024-02-21T02:00:59;8.10;86.08
77100;SHT31;66602;48.922;2.414;2024-02-21T02:03:25;8.09;86.09
77100;SHT31;66602;48.922;2.414;2024-02-21T02:05:52;8.10;86.07
77100;SHT31;66602;48.922;2.414;2024-02-21T02:08:19;8.09;86.15
77100;SHT31;66602;48.922;2.414;2024-02-21T02:10:45;8.17;85.63
77100;SHT31;66602;48.922;2.414;2024-02-21T02:13:14;8.19;85.90
77100;SHT31;66602;48.922;2.414;2024-02-21T02:15:47;8.17;85.92
77100;SHT31;66602;48.922;2.414;2024-02-21T02:18:13;8.28;85.48
77100;SHT31;66602;48.922;2.414;2024-02-21T02:20:39;8.28;85.45
77100;SHT31;66602;48.922;2.414;2024-02-21T02:23:12;8.29;85.36
77100;SHT31;66602;48.922;2.414;2024-02-21T02:25:38;8.29;85.42
77100;SHT31;66602;48.922;2.414;2024-02-21T02:28:06;8.29;85.30
77100;SHT31;66602;48.922;2.414;2024-02-21T02:30:32;8.28;85.37
77100;SHT31;66602;48.922;2.414;2024-02-21T02:32:59;8.26;85.41
77100;SHT31;66602;48.922;2.414;2024-02-21T02:35:24;8.25;85.39
77100;SHT31;66602;48.922;2.414;2024-02-21T02:37:50;8.25;85.51
77100;SHT31;66602;48.922;2.414;2024-02-21T02:40:16;8.33;85.32
77100;SHT31;66602;48.922;2.414;2024-02-21T02:42:42;8.28;85.39
77100;SHT31;66602;48.922;2.414;2024-02-21T02:45:07;8.28;85.32
77100;SHT31;66602;48.922;2.414;2024-02-21T02:47:33;8.32;85.16
77100;SHT31;66602;48.922;2.414;2024-02-21T02:50:00;8.33;84.98
77100;SHT31;66602;48.922;2.414;2024-02-21T02:52:25;8.39;85.03
77100;SHT31;66602;48.922;2.414;2024-02-21T02:54:51;8.35;85.04
77100;SHT31;66602;48.922;2.414;2024-02-21T02:57:18;8.35;85.08
77100;SHT31;66602;48.922;2.414;2024-02-21T02:59:50;8.29;85.18
77100;SHT31;66602;48.922;2.414;2024-02-21T03:02:16;8.37;84.83
77100;SHT31;66602;48.922;2.414;2024-02-21T03:04:42;8.39;84.89
77100;SHT31;66602;48.922;2.414;2024-02-21T03:07:08;8.35;85.03
77100;SHT31;66602;48.922;2.414;2024-02-21T03:09:33;8.40;84.69
77100;SHT31;66602;48.922;2.414;2024-02-21T03:11:59;8.37;84.83
77100;SHT31;66602;48.922;2.414;2024-02-21T03:14:28;8.42;84.74
77100;SHT31;66602;48.922;2.414;2024-02-21T03:16:54;8.39;84.53
77100;SHT31;66602;48.922;2.414;2024-02-21T03:19:20;8.39;84.65
77100;SHT31;66602;48.922;2.414;2024-02-21T03:21:45;8.42;84.57
77100;SHT31;66602;48.922;2.414;2024-02-21T03:24:11;8.37;84.48
77100;SHT31;66602;48.922;2.414;2024-02-21T03:26:36;8.39;84.59
77100;SHT31;66602;48.922;2.414;2024-02-21T03:29:06;8.39;84.55
77100;SHT31;66602;48.922;2.414;2024-02-21T03:31:31;8.36;84.32
77100;SHT31;66602;48.922;2.414;2024-02-21T03:33:56;8.39;84.47
77100;SHT31;66602;48.922;2.414;2024-02-21T03:36:22;8.37;84.47
77100;SHT31;66602;48.922;2.414;2024-02-21T03:38:47;8.30;84.74
77100;SHT31;66602;48.922;2.414;2024-02-21T03:41:13;8.30;84.65
77100;SHT31;66602;48.922;2.414;2024-02-21T03:43:38;8.32;84.68
77100;SHT31;66602;48.922;2.414;2024-02-21T03:46:04;8.28;84.47
77100;SHT31;66602;48.922;2.414;2024-02-21T03:48:30;8.25;84.81
77100;SHT31;66602;48.922;2.414;2024-02-21T03:50:55;8.23;84.77
77100;SHT31;66602;48.922;2.414;2024-02-21T03:53:21;8.23;84.80
77100;SHT31;66602;48.922;2.414;2024-02-21T03:55:46;8.22;84.97
77100;SHT31;66602;48.922;2.414;2024-02-21T03:58:12;8.21;84.94
77100;SHT31;66602;48.922;2.414;2024-02-21T04:00:37;8.17;85.00
77100;SHT31;66602;48.922;2.414;2024-02-21T04:03:04;8.15;85.02
77100;SHT31;66602;48.922;2.414;2024-02-21T04:05:29;8.17;85.07
77100;SHT31;66602;48.922;2.414;2024-02-21T04:07:55;8.19;84.97
77100;SHT31;66602;48.922;2.414;2024-02-21T04:10:20;8.23;85.02
77100;SHT31;66602;48.922;2.414;2024-02-21T04:12:46;8.19;84.99
77100;SHT31;66602;48.922;2.414;2024-02-21T04:15:11;8.28;85.00
77100;SHT31;66602;48.922;2.414;2024-02-21T04:17:37;8.29;84.84
77100;SHT31;66602;48.922;2.414;2024-02-21T04:20:04;8.29;84.89
77100;SHT31;66602;48.922;2.414;2024-02-21T04:22:33;8.29;84.71
77100;SHT31;66602;48.922;2.414;2024-02-21T04:25:00;8.36;84.53
77100;SHT31;66602;48.922;2.414;2024-02-21T04:27:26;8.33;84.62
77100;SHT31;66602;48.922;2.414;2024-02-21T04:29:52;8.35;84.64
77100;SHT31;66602;48.922;2.414;2024-02-21T04:32:18;8.33;84.70
77100;SHT31;66602;48.922;2.414;2024-02-21T04:34:43;8.29;84.54
77100;SHT31;66602;48.922;2.414;2024-02-21T04:37:08;8.25;84.47
77100;SHT31;66602;48.922;2.414;2024-02-21T04:39:34;8.21;84.65
77100;SHT31;66602;48.922;2.414;2024-02-21T04:41:59;8.17;84.82
77100;SHT31;66602;48.922;2.414;2024-02-21T04:44:25;8.10;84.98
77100;SHT31;66602;48.922;2.414;2024-02-21T04:46:50;8.12;84.83
77100;SHT31;66602;48.922;2.414;2024-02-21T04:49:16;8.03;85.17
77100;SHT31;66602;48.922;2.414;2024-02-21T04:51:41;7.96;85.46
77100;SHT31;66602;48.922;2.414;2024-02-21T04:54:07;7.86;85.72
77100;SHT31;66602;48.922;2.414;2024-02-21T04:56:32;7.89;85.96
77100;SHT31;66602;48.922;2.414;2024-02-21T04:58:58;7.89;85.72
77100;SHT31;66602;48.922;2.414;2024-02-21T05:01:23;7.94;85.72
77100;SHT31;66602;48.922;2.414;2024-02-21T05:03:49;7.92;85.86
77100;SHT31;66602;48.922;2.414;2024-02-21T05:06:14;7.99;85.64
77100;SHT31;66602;48.922;2.414;2024-02-21T05:08:40;7.95;85.48
77100;SHT31;66602;48.922;2.414;2024-02-21T05:11:06;7.95;85.51
77100;SHT31;66602;48.922;2.414;2024-02-21T05:13:32;7.81;85.95
77100;SHT31;66602;48.922;2.414;2024-02-21T05:15:57;7.75;86.12
77100;SHT31;66602;48.922;2.414;2024-02-21T05:18:27;7.68;86.43
77100;SHT31;66602;48.922;2.414;2024-02-21T05:20:52;7.55;86.91
77100;SHT31;66602;48.922;2.414;2024-02-21T05:23:17;7.53;87.18
77100;SHT31;66602;48.922;2.414;2024-02-21T05:25:43;7.48;87.35
77100;SHT31;66602;48.922;2.414;2024-02-21T05:28:08;7.40;87.54
77100;SHT31;66602;48.922;2.414;2024-02-21T05:30:34;7.42;87.70
77100;SHT31;66602;48.922;2.414;2024-02-21T05:33:04;7.43;87.64
77100;SHT31;66602;48.922;2.414;2024-02-21T05:35:29;7.43;87.55
77100;SHT31;66602;48.922;2.414;2024-02-21T05:37:55;7.42;87.48
77100;SHT31;66602;48.922;2.414;2024-02-21T05:40:20;7.43;87.62
77100;SHT31;66602;48.922;2.414;2024-02-21T05:42:46;7.34;87.74
77100;SHT31;66602;48.922;2.414;2024-02-21T05:45:11;7.26;88.06
77100;SHT31;66602;48.922;2.414;2024-02-21T05:47:36;7.28;88.23
77100;SHT31;66602;48.922;2.414;2024-02-21T05:50:02;7.31;88.10
77100;SHT31;66602;48.922;2.414;2024-02-21T05:52:28;7.26;88.09
77100;SHT31;66602;48.922;2.414;2024-02-21T05:54:53;7.23;88.42
77100;SHT31;66602;48.922;2.414;2024-02-21T05:57:19;7.23;88.46
77100;SHT31;66602;48.922;2.414;2024-02-21T05:59:44;7.19;88.51
77100;SHT31;66602;48.922;2.414;2024-02-21T06:02:10;7.17;88.57
77100;SHT31;66602;48.922;2.414;2024-02-21T06:04:35;7.16;88.64
77100;SHT31;66602;48.922;2.414;2024-02-21T06:07:01;7.17;88.74
77100;SHT31;66602;48.922;2.414;2024-02-21T06:09:27;7.15;88.77
77100;SHT31;66602;48.922;2.414;2024-02-21T06:11:53;7.17;88.79
77100;SHT31;66602;48.922;2.414;2024-02-21T06:14:19;7.13;88.88
77100;SHT31;66602;48.922;2.414;2024-02-21T06:16:45;7.16;88.78
77100;SHT31;66602;48.922;2.414;2024-02-21T06:19:10;7.22;88.60
77100;SHT31;66602;48.922;2.414;2024-02-21T06:21:36;7.13;88.71
77100;SHT31;66602;48.922;2.414;2024-02-21T06:24:03;7.16;88.72
77100;SHT31;66602;48.922;2.414;2024-02-21T06:26:28;7.22;88.73
77100;SHT31;66602;48.922;2.414;2024-02-21T06:28:54;7.27;88.48
77100;SHT31;66602;48.922;2.414;2024-02-21T06:31:19;7.23;88.64
77100;SHT31;66602;48.922;2.414;2024-02-21T06:33:45;7.19;88.69
77100;SHT31;66602;48.922;2.414;2024-02-21T06:36:10;7.19;88.88
77100;SHT31;66602;48.922;2.414;2024-02-21T06:38:36;7.17;88.80
77100;SHT31;66602;48.922;2.414;2024-02-21T06:41:01;7.23;88.73
77100;SHT31;66602;48.922;2.414;2024-02-21T06:43:28;7.19;88.77
77100;SHT31;66602;48.922;2.414;2024-02-21T06:45:53;7.12;88.95
77100;SHT31;66602;48.922;2.414;2024-02-21T06:48:20;7.07;89.21
77100;SHT31;66602;48.922;2.414;2024-02-21T06:50:45;7.02;89.52
77100;SHT31;66602;48.922;2.414;2024-02-21T06:53:11;7.06;89.75
77100;SHT31;66602;48.922;2.414;2024-02-21T06:55:37;7.05;89.76
77100;SHT31;66602;48.922;2.414;2024-02-21T06:58:02;7.07;89.63
77100;SHT31;66602;48.922;2.414;2024-02-21T07:00:29;7.13;89.44
77100;SHT31;66602;48.922;2.414;2024-02-21T07:02:54;7.22;89.33
77100;SHT31;66602;48.922;2.414;2024-02-21T07:05:20;7.34;88.83
77100;SHT31;66602;48.922;2.414;2024-02-21T07:07:46;7.42;88.45
77100;SHT31;66602;48.922;2.414;2024-02-21T07:10:11;7.46;88.24
77100;SHT31;66602;48.922;2.414;2024-02-21T07:12:37;7.43;88.34
77100;SHT31;66602;48.922;2.414;2024-02-21T07:15:08;7.40;88.41
77100;SHT31;66602;48.922;2.414;2024-02-21T07:17:34;7.58;87.83
77100;SHT31;66602;48.922;2.414;2024-02-21T07:20:00;7.68;87.35
77100;SHT31;66602;48.922;2.414;2024-02-21T07:22:26;7.73;86.97
77100;SHT31;66602;48.922;2.414;2024-02-21T07:24:52;7.77;86.67
77100;SHT31;66602;48.922;2.414;2024-02-21T07:27:17;7.79;86.75
77100;SHT31;66602;48.922;2.414;2024-02-21T07:29:43;7.77;86.71
77100;SHT31;66602;48.922;2.414;2024-02-21T07:32:12;7.81;86.71
77100;SHT31;66602;48.922;2.414;2024-02-21T07:34:38;7.77;86.76
77100;SHT31;66602;48.922;2.414;2024-02-21T07:37:04;7.77;86.80
77100;SHT31;66602;48.922;2.414;2024-02-21T07:39:29;7.85;86.41
77100;SHT31;66602;48.922;2.414;2024-02-21T07:41:55;7.88;86.27
77100;SHT31;66602;48.922;2.414;2024-02-21T07:44:20;7.96;86.08
77100;SHT31;66602;48.922;2.414;2024-02-21T07:46:46;7.96;85.99
77100;SHT31;66602;48.922;2.414;2024-02-21T07:49:11;8.03;85.90
77100;SHT31;66602;48.922;2.414;2024-02-21T07:51:36;8.07;85.53
77100;SHT31;66602;48.922;2.414;2024-02-21T07:54:02;8.16;85.37
77100;SHT31;66602;48.922;2.414;2024-02-21T07:56:29;8.22;85.02
77100;SHT31;66602;48.922;2.414;2024-02-21T07:58:55;8.26;85.01
77100;SHT31;66602;48.922;2.414;2024-02-21T08:01:21;8.32;84.71
77100;SHT31;66602;48.922;2.414;2024-02-21T08:03:47;8.39;84.49
77100;SHT31;66602;48.922;2.414;2024-02-21T08:06:13;8.43;84.39
77100;SHT31;66602;48.922;2.414;2024-02-21T08:08:39;8.50;84.10
77100;SHT31;66602;48.922;2.414;2024-02-21T08:11:05;8.52;84.18
77100;SHT31;66602;48.922;2.414;2024-02-21T08:13:31;8.53;84.06
77100;SHT31;66602;48.922;2.414;2024-02-21T08:15:56;8.61;83.78
77100;SHT31;66602;48.922;2.414;2024-02-21T08:18:23;8.63;83.73
77100;SHT31;66602;48.922;2.414;2024-02-21T08:20:48;8.70;83.43
77100;SHT31;66602;48.922;2.414;2024-02-21T08:23:18;8.74;82.98
77100;SHT31;66602;48.922;2.414;2024-02-21T08:25:44;8.75;83.05
77100;SHT31;66602;48.922;2.414;2024-02-21T08:28:09;8.78;82.96
77100;SHT31;66602;48.922;2.414;2024-02-21T08:30:35;8.78;82.74
77100;SHT31;66602;48.922;2.414;2024-02-21T08:33:01;8.83;82.74
77100;SHT31;66602;48.922;2.414;2024-02-21T08:35:26;8.85;82.78
77100;SHT31;66602;48.922;2.414;2024-02-21T08:37:52;8.85;82.56
77100;SHT31;66602;48.922;2.414;2024-02-21T08:40:17;8.89;82.57
77100;SHT31;66602;48.922;2.414;2024-02-21T08:42:46;8.94;82.46
77100;SHT31;66602;48.922;2.414;2024-02-21T08:45:11;8.98;82.42
77100;SHT31;66602;48.922;2.414;2024-02-21T08:47:40;9.00;82.33
77100;SHT31;66602;48.922;2.414;2024-02-21T08:50:07;8.98;82.28
77100;SHT31;66602;48.922;2.414;2024-02-21T08:52:32;9.07;82.14
77100;SHT31;66602;48.922;2.414;2024-02-21T08:54:58;9.10;81.94
77100;SHT31;66602;48.922;2.414;2024-02-21T08:57:24;9.18;81.74
77100;SHT31;66602;48.922;2.414;2024-02-21T08:59:49;9.19;81.57
77100;SHT31;66602;48.922;2.414;2024-02-21T09:02:15;9.22;81.55
77100;SHT31;66602;48.922;2.414;2024-02-21T09:04:41;9.31;81.31
77100;SHT31;66602;48.922;2.414;2024-02-21T09:07:07;9.39;81.01
77100;SHT31;66602;48.922;2.414;2024-02-21T09:09:33;9.53;80.62
77100;SHT31;66602;48.922;2.414;2024-02-21T09:11:59;9.60;80.06
77100;SHT31;66602;48.922;2.414;2024-02-21T09:14:33;9.67;79.74
77100;SHT31;66602;48.922;2.414;2024-02-21T09:16:59;9.82;79.49
77100;SHT31;66602;48.922;2.414;2024-02-21T09:19:25;9.86;79.20
77100;SHT31;66602;48.922;2.414;2024-02-21T09:21:50;9.84;79.42
77100;SHT31;66602;48.922;2.414;2024-02-21T09:24:15;9.89;79.29
77100;SHT31;66602;48.922;2.414;2024-02-21T09:26:42;9.94;78.77
77100;SHT31;66602;48.922;2.414;2024-02-21T09:29:10;9.87;79.40
77100;SHT31;66602;48.922;2.414;2024-02-21T09:31:35;9.94;78.85
77100;SHT31;66602;48.922;2.414;2024-02-21T09:34:01;10.00;78.73
77100;SHT31;66602;48.922;2.414;2024-02-21T09:36:27;10.10;78.45
77100;SHT31;66602;48.922;2.414;2024-02-21T09:38:53;10.07;78.39
77100;SHT31;66602;48.922;2.414;2024-02-21T09:41:25;10.15;78.25
77100;SHT31;66602;48.922;2.414;2024-02-21T09:43:58;10.17;77.98
77100;SHT31;66602;48.922;2.414;2024-02-21T09:46:45;10.13;78.08
77100;SHT31;66602;48.922;2.414;2024-02-21T09:49:32;10.17;77.83
77100;SHT31;66602;48.922;2.414;2024-02-21T09:52:00;10.22;77.72
77100;SHT31;66602;48.922;2.414;2024-02-21T09:54:28;10.22;77.52
77100;SHT31;66602;48.922;2.414;2024-02-21T09:56:53;10.17;77.60
77100;SHT31;66602;48.922;2.414;2024-02-21T09:59:19;10.15;77.74
77100;SHT31;66602;48.922;2.414;2024-02-21T10:01:45;10.21;77.79
77100;SHT31;66602;48.922;2.414;2024-02-21T10:04:13;10.25;77.33
77100;SHT31;66602;48.922;2.414;2024-02-21T10:06:39;10.34;77.30
77100;SHT31;66602;48.922;2.414;2024-02-21T10:09:08;10.42;76.85
77100;SHT31;66602;48.922;2.414;2024-02-21T10:11:33;10.51;76.46
77100;SHT31;66602;48.922;2.414;2024-02-21T10:14:05;10.62;76.38
77100;SHT31;66602;48.922;2.414;2024-02-21T10:16:32;10.76;75.79
77100;SHT31;66602;48.922;2.414;2024-02-21T10:18:59;10.97;75.73
77100;SHT31;66602;48.922;2.414;2024-02-21T10:21:25;11.07;74.91
77100;SHT31;66602;48.922;2.414;2024-02-21T10:23:51;11.14;74.71
77100;SHT31;66602;48.922;2.414;2024-02-21T10:26:23;11.24;74.30
77100;SHT31;66602;48.922;2.414;2024-02-21T10:28:49;11.47;73.68
77100;SHT31;66602;48.922;2.414;2024-02-21T10:31:27;11.60;73.05
77100;SHT31;66602;48.922;2.414;2024-02-21T10:33:59;11.89;72.17
77100;SHT31;66602;48.922;2.414;2024-02-21T10:36:28;11.82;72.13
77100;SHT31;66602;48.922;2.414;2024-02-21T10:38:53;12.03;71.65
77100;SHT31;66602;48.922;2.414;2024-02-21T10:41:20;12.09;71.19
77100;SHT31;66602;48.922;2.414;2024-02-21T10:43:49;12.39;70.45
77100;SHT31;66602;48.922;2.414;2024-02-21T10:46:19;12.53;69.97
77100;SHT31;66602;48.922;2.414;2024-02-21T10:48:46;12.30;70.71
77100;SHT31;66602;48.922;2.414;2024-02-21T10:51:17;12.34;70.38
77100;SHT31;66602;48.922;2.414;2024-02-21T10:56:49;12.33;70.55
77100;SHT31;66602;48.922;2.414;2024-02-21T10:59:17;12.29;71.31
77100;SHT31;66602;48.922;2.414;2024-02-21T11:01:44;12.36;70.79
77100;SHT31;66602;48.922;2.414;2024-02-21T11:04:10;12.36;70.74
77100;SHT31;66602;48.922;2.414;2024-02-21T11:06:40;12.34;70.95
77100;SHT31;66602;48.922;2.414;2024-02-21T11:09:09;12.18;71.39
77100;SHT31;66602;48.922;2.414;2024-02-21T11:11:37;11.92;71.83
77100;SHT31;66602;48.922;2.414;2024-02-21T11:14:20;11.96;72.27
77100;SHT31;66602;48.922;2.414;2024-02-21T11:16:47;11.68;72.94
77100;SHT31;66602;48.922;2.414;2024-02-21T11:19:25;11.68;73.17
77100;SHT31;66602;48.922;2.414;2024-02-21T11:22:14;11.78;73.03
77100;SHT31;66602;48.922;2.414;2024-02-21T11:24:41;11.72;72.94
77100;SHT31;66602;48.922;2.414;2024-02-21T11:27:12;11.89;72.60
77100;SHT31;66602;48.922;2.414;2024-02-21T11:29:47;11.89;72.91
77100;SHT31;66602;48.922;2.414;2024-02-21T11:32:17;11.88;72.65
77100;SHT31;66602;48.922;2.414;2024-02-21T11:35:00;12.05;72.31
77100;SHT31;66602;48.922;2.414;2024-02-21T11:37:31;12.09;71.69
77100;SHT31;66602;48.922;2.414;2024-02-21T11:40:08;12.22;71.63
77100;SHT31;66602;48.922;2.414;2024-02-21T11:42:51;12.43;70.94
77100;SHT31;66602;48.922;2.414;2024-02-21T11:45:17;12.54;70.60
77100;SHT31;66602;48.922;2.414;2024-02-21T11:47:43;12.42;70.53
77100;SHT31;66602;48.922;2.414;2024-02-21T11:50:11;12.36;71.00
77100;SHT31;66602;48.922;2.414;2024-02-21T11:52:37;12.59;69.91
77100;SHT31;66602;48.922;2.414;2024-02-21T11:55:06;12.53;70.37
77100;SHT31;66602;48.922;2.414;2024-02-21T11:57:36;12.65;70.10
77100;SHT31;66602;48.922;2.414;2024-02-21T12:00:16;12.59;70.23
77100;SHT31;66602;48.922;2.414;2024-02-21T12:02:43;12.63;70.48
77100;SHT31;66602;48.922;2.414;2024-02-21T12:05:10;12.37;70.88
77100;SHT31;66602;48.922;2.414;2024-02-21T12:07:36;12.22;71.28
77100;SHT31;66602;48.922;2.414;2024-02-21T12:10:09;12.40;71.13
77100;SHT31;66602;48.922;2.414;2024-02-21T12:12:37;12.46;71.11
77100;SHT31;66602;48.922;2.414;2024-02-21T12:15:13;12.44;70.87
77100;SHT31;66602;48.922;2.414;2024-02-21T12:17:39;12.26;71.39
77100;SHT31;66602;48.922;2.414;2024-02-21T12:20:05;12.21;71.49
77100;SHT31;66602;48.922;2.414;2024-02-21T12:22:37;12.13;71.71
77100;SHT31;66602;48.922;2.414;2024-02-21T12:25:15;12.25;71.63
77100;SHT31;66602;48.922;2.414;2024-02-21T12:27:43;12.25;71.82
77100;SHT31;66602;48.922;2.414;2024-02-21T12:30:09;12.16;71.50
77100;SHT31;66602;48.922;2.414;2024-02-21T12:32:37;12.01;71.94
77100;SHT31;66602;48.922;2.414;2024-02-21T12:35:03;12.12;72.01
77100;SHT31;66602;48.922;2.414;2024-02-21T12:37:29;12.22;71.98
77100;SHT31;66602;48.922;2.414;2024-02-21T12:39:54;12.23;71.52
77100;SHT31;66602;48.922;2.414;2024-02-21T12:42:20;12.29;71.40
77100;SHT31;66602;48.922;2.414;2024-02-21T12:44:48;12.28;71.35
77100;SHT31;66602;48.922;2.414;2024-02-21T12:47:13;12.19;71.58
77100;SHT31;66602;48.922;2.414;2024-02-21T12:49:39;12.12;71.78
77100;SHT31;66602;48.922;2.414;2024-02-21T12:52:04;12.01;72.20
77100;SHT31;66602;48.922;2.414;2024-02-21T12:54:31;12.08;72.21
77100;SHT31;66602;48.922;2.414;2024-02-21T12:56:57;12.01;72.48
77100;SHT31;66602;48.922;2.414;2024-02-21T12:59:23;12.05;72.37
77100;SHT31;66602;48.922;2.414;2024-02-21T13:01:49;12.06;72.43
77100;SHT31;66602;48.922;2.414;2024-02-21T13:04:14;12.12;72.34
77100;SHT31;66602;48.922;2.414;2024-02-21T13:06:40;12.22;72.08
77100;SHT31;66602;48.922;2.414;2024-02-21T13:09:05;12.26;72.11
77100;SHT31;66602;48.922;2.414;2024-02-21T13:11:36;12.25;72.28
77100;SHT31;66602;48.922;2.414;2024-02-21T13:14:03;12.21;72.75
77100;SHT31;66602;48.922;2.414;2024-02-21T13:16:28;12.13;73.23
77100;SHT31;66602;48.922;2.414;2024-02-21T13:18:54;11.95;74.27
77100;SHT31;66602;48.922;2.414;2024-02-21T13:21:20;11.62;76.13
77100;SHT31;66602;48.922;2.414;2024-02-21T13:23:45;11.40;77.49
77100;SHT31;66602;48.922;2.414;2024-02-21T13:26:11;11.24;78.05
77100;SHT31;66602;48.922;2.414;2024-02-21T13:28:38;11.12;79.35
77100;SHT31;66602;48.922;2.414;2024-02-21T13:31:03;10.91;79.86
77100;SHT31;66602;48.922;2.414;2024-02-21T13:33:29;10.77;80.63
77100;SHT31;66602;48.922;2.414;2024-02-21T13:35:54;10.72;81.41
77100;SHT31;66602;48.922;2.414;2024-02-21T13:38:20;10.63;81.57
77100;SHT31;66602;48.922;2.414;2024-02-21T13:40:49;10.55;82.08
77100;SHT31;66602;48.922;2.414;2024-02-21T13:43:15;10.46;82.50
77100;SHT31;66602;48.922;2.414;2024-02-21T13:45:56;10.40;83.12
77100;SHT31;66602;48.922;2.414;2024-02-21T13:48:22;10.37;83.55
77100;SHT31;66602;48.922;2.414;2024-02-21T13:50:48;10.22;84.53
77100;SHT31;66602;48.922;2.414;2024-02-21T13:53:14;10.17;85.06
77100;SHT31;66602;48.922;2.414;2024-02-21T13:55:40;10.14;85.06
77100;SHT31;66602;48.922;2.414;2024-02-21T13:58:07;10.07;85.05
77100;SHT31;66602;48.922;2.414;2024-02-21T14:00:34;10.03;85.62
77100;SHT31;66602;48.922;2.414;2024-02-21T14:03:02;9.97;86.45
77100;SHT31;66602;48.922;2.414;2024-02-21T14:05:28;9.89;86.08
77100;SHT31;66602;48.922;2.414;2024-02-21T14:07:54;9.86;86.96
77100;SHT31;66602;48.922;2.414;2024-02-21T14:10:23;9.82;87.40
77100;SHT31;66602;48.922;2.414;2024-02-21T14:12:49;9.79;87.69
77100;SHT31;66602;48.922;2.414;2024-02-21T14:15:15;9.76;87.18
77100;SHT31;66602;48.922;2.414;2024-02-21T14:17:42;9.70;87.32
77100;SHT31;66602;48.922;2.414;2024-02-21T14:20:08;9.66;88.61
77100;SHT31;66602;48.922;2.414;2024-02-21T14:22:35;9.60;88.24
77100;SHT31;66602;48.922;2.414;2024-02-21T14:25:03;9.57;88.77
77100;SHT31;66602;48.922;2.414;2024-02-21T14:27:32;9.57;88.42
77100;SHT31;66602;48.922;2.414;2024-02-21T14:30:05;9.55;89.19
77100;SHT31;66602;48.922;2.414;2024-02-21T14:32:31;9.55;89.29
77100;SHT31;66602;48.922;2.414;2024-02-21T14:34:56;9.53;89.97
77100;SHT31;66602;48.922;2.414;2024-02-21T14:37:22;9.50;89.74
77100;SHT31;66602;48.922;2.414;2024-02-21T14:39:47;9.50;90.26
77100;SHT31;66602;48.922;2.414;2024-02-21T14:42:17;9.50;89.96
77100;SHT31;66602;48.922;2.414;2024-02-21T14:44:42;9.52;90.36
77100;SHT31;66602;48.922;2.414;2024-02-21T14:47:10;9.52;90.78
77100;SHT31;66602;48.922;2.414;2024-02-21T14:49:47;9.50;90.52
77100;SHT31;66602;48.922;2.414;2024-02-21T14:52:14;9.42;90.97
77100;SHT31;66602;48.922;2.414;2024-02-21T14:54:43;9.47;90.61
77100;SHT31;66602;48.922;2.414;2024-02-21T14:57:11;9.38;91.06
77100;SHT31;66602;48.922;2.414;2024-02-21T14:59:43;9.34;91.22
77100;SHT31;66602;48.922;2.414;2024-02-21T15:02:31;9.29;91.49
77100;SHT31;66602;48.922;2.414;2024-02-21T15:05:04;9.26;91.87
77100;SHT31;66602;48.922;2.414;2024-02-21T15:07:33;9.31;92.10
77100;SHT31;66602;48.922;2.414;2024-02-21T15:09:59;9.34;91.61
77100;SHT31;66602;48.922;2.414;2024-02-21T15:12:37;9.34;91.74
77100;SHT31;66602;48.922;2.414;2024-02-21T15:15:03;9.34;91.90
77100;SHT31;66602;48.922;2.414;2024-02-21T15:17:38;9.32;91.89
77100;SHT31;66602;48.922;2.414;2024-02-21T15:20:09;9.34;92.01
77100;SHT31;66602;48.922;2.414;2024-02-21T15:22:37;9.32;92.23
77100;SHT31;66602;48.922;2.414;2024-02-21T15:25:04;9.32;92.06
77100;SHT31;66602;48.922;2.414;2024-02-21T15:27:34;9.31;92.03
77100;SHT31;66602;48.922;2.414;2024-02-21T15:30:14;9.34;92.21
77100;SHT31;66602;48.922;2.414;2024-02-21T15:32:47;9.34;92.23
77100;SHT31;66602;48.922;2.414;2024-02-21T15:35:16;9.35;92.48
77100;SHT31;66602;48.922;2.414;2024-02-21T15:37:42;9.38;92.48
77100;SHT31;66602;48.922;2.414;2024-02-21T15:40:08;9.39;92.45
77100;SHT31;66602;48.922;2.414;2024-02-21T15:42:34;9.36;92.29
77100;SHT31;66602;48.922;2.414;2024-02-21T15:45:01;9.35;92.55